Jasper, Illinois
Current Conditions -  °F | °C
As of 4:35 AM on Sunday 26 Oct 2014 (Local Time) from KFWC Reporting Station
Clear Clear  
Wind Chill: 48°   Ceiling: Unl
Heat Index: 48°   Visibility: 10mi
Dew Point: 47°   Wind: 0mph
Humidity: 95%   Direction: NA
Pressure: 30.01"   Gusts: NA
Location:  38.3669°N, 88.3516°W
Report Text: KFWC 260935Z AUTO 00000KT 10SM CLR 09/08 A3001 RMK AO1 T00880081
Loading
Personal Weather Stations






























Interactive Weather Map
Tropical Storm Tracking
New forecast layout! Learn more

10-Day Weather Forecast

Advertisements
Track Severe Weather on mobile